| time (UTC) | temp C | wind direction | speed KPH | gust KPH | rain 1hr cm | rain 24hr cm | rain mn cm | humidity % | barometer mb |
| 20260505100958 | 17 | 144 | 8.0 | 11.3 | 0.00 | 0.00 | 0.00 | 71 | 1006.3 |
| 20260505100455 | 17 | 146 | 9.7 | 12.9 | 0.00 | 0.00 | 0.00 | 71 | 1006.4 |
| 20260505095951 | 17 | 167 | 6.4 | 9.7 | 0.00 | 0.00 | 0.00 | 73 | 1006.4 |
| 20260505095448 | 17 | 170 | 1.6 | 8.0 | 0.00 | 0.00 | 0.00 | 74 | 1006.3 |
| 20260505094944 | 17 | 150 | 1.6 | 8.0 | 0.00 | 0.00 | 0.00 | 74 | 1006.3 |
| 20260505094441 | 17 | 143 | 4.8 | 4.8 | 0.00 | 0.00 | 0.00 | 72 | 1006.3 |
| 20260505093937 | 17 | 122 | 1.6 | 3.2 | 0.00 | 0.00 | 0.00 | 71 | 1006.2 |
| 20260505093434 | 17 | 139 | 3.2 | 4.8 | 0.00 | 0.00 | 0.00 | 71 | 1006.4 |
| 20260505092931 | 17 | 152 | 4.8 | 4.8 | 0.00 | 0.00 | 0.00 | 70 | 1006.4 |
| 20260505092429 | 17 | 142 | 4.8 | 4.8 | 0.00 | 0.00 | 0.00 | 71 | 1006.5 |
| 20260505091926 | 17 | 146 | 4.8 | 4.8 | 0.00 | 0.00 | 0.00 | 73 | 1006.6 |
| 20260505091424 | 17 | 115 | 3.2 | 4.8 | 0.00 | 0.00 | 0.00 | 73 | 1006.8 |
| 20260505090922 | 17 | 149 | 1.6 | 4.8 | 0.00 | 0.00 | 0.00 | 75 | 1006.5 |
| 20260505090420 | 16 | 149 | 0.0 | 0.0 | 0.00 | 0.00 | 0.00 | 77 | 1006.7 |
| 20260505085917 | 16 | 169 | 0.0 | 0.0 | 0.00 | 0.00 | 0.00 | 78 | 1007.0 |
| 20260505085415 | 16 | 153 | 0.0 | 0.0 | 0.00 | 0.00 | 0.00 | 78 | 1006.9 |
| 20260505084913 | 17 | 153 | 0.0 | 0.0 | 0.00 | 0.00 | 0.00 | 77 | 1007.1 |
| 20260505084410 | 17 | 151 | 0.0 | 0.0 | 0.00 | 0.00 | 0.00 | 77 | 1006.7 |
| 20260505083909 | 17 | 151 | 0.0 | 0.0 | 0.00 | 0.00 | 0.00 | 75 | 1007.0 |
| 20260505083406 | 17 | 164 | 0.0 | 1.6 | 0.00 | 0.00 | 0.00 | 73 | 1006.9 |
| 20260505082901 | 17 | 157 | 0.0 | 0.0 | 0.00 | 0.00 | 0.00 | 73 | 1007.0 |
| 20260505082357 | 17 | 150 | 0.0 | 0.0 | 0.00 | 0.00 | 0.00 | 74 | 1007.0 |
| 20260505081854 | 17 | 172 | 0.0 | 1.6 | 0.00 | 0.00 | 0.00 | 70 | 1007.1 |
| 20260505081351 | 17 | 102 | 0.0 | 0.0 | 0.00 | 0.00 | 0.00 | 73 | 1007.1 |
| 20260505080848 | 17 | 125 | 0.0 | 1.6 | 0.00 | 0.00 | 0.00 | 75 | 1007.1 |
| 20260505080344 | 17 | 130 | 0.0 | 0.0 | 0.00 | 0.00 | 0.00 | 73 | 1007.2 |
| 20260505075839 | 17 | 143 | 0.0 | 0.0 | 0.00 | 0.00 | 0.00 | 72 | 1007.2 |
| 20260505075336 | 17 | 164 | 0.0 | 0.0 | 0.00 | 0.00 | 0.00 | 71 | 1007.4 |
| 20260505074834 | 17 | 131 | 0.0 | 0.0 | 0.00 | 0.00 | 0.00 | 70 | 1007.5 |
| 20260505074331 | 17 | 126 | 0.0 | 0.0 | 0.00 | 0.00 | 0.00 | 70 | 1007.6 |
| 20260505073828 | 17 | 128 | 0.0 | 0.0 | 0.00 | 0.00 | 0.00 | 69 | 1007.5 |
| 20260505073326 | 17 | 130 | 0.0 | 0.0 | 0.00 | 0.00 | 0.00 | 68 | 1007.4 |
| 20260505072823 | 18 | 99 | 1.6 | 1.6 | 0.00 | 0.00 | 0.00 | 68 | 1007.4 |
| 20260505072319 | 18 | 135 | 0.0 | 1.6 | 0.00 | 0.00 | 0.00 | 66 | 1007.2 |
| 20260505071815 | 18 | 138 | 0.0 | 1.6 | 0.00 | 0.00 | 0.00 | 65 | 1007.1 |
| 20260505071312 | 18 | 134 | 0.0 | 1.6 | 0.00 | 0.00 | 0.00 | 64 | 1007.3 |
| 20260505070810 | 18 | 128 | 3.2 | 4.8 | 0.00 | 0.00 | 0.00 | 64 | 1006.9 |
| 20260505070306 | 18 | 118 | 0.0 | 4.8 | 0.00 | 0.00 | 0.00 | 63 | 1006.5 |
| 20260505065801 | 18 | 112 | 3.2 | 11.3 | 0.00 | 0.00 | 0.00 | 63 | 1006.6 |
| 20260505065258 | 18 | 67 | 4.8 | 8.0 | 0.00 | 0.00 | 0.00 | 64 | 1006.5 |
| 20260505064755 | 18 | 141 | 6.4 | 9.7 | 0.00 | 0.00 | 0.00 | 64 | 1006.4 |
| 20260505064252 | 18 | 127 | 4.8 | 8.0 | 0.00 | 0.00 | 0.00 | 64 | 1006.4 |
| 20260505063750 | 18 | 103 | 4.8 | 8.0 | 0.00 | 0.00 | 0.00 | 64 | 1006.9 |
| 20260505063246 | 18 | 93 | 3.2 | 4.8 | 0.00 | 0.00 | 0.00 | 64 | 1006.8 |
| 20260505062742 | 18 | 131 | 1.6 | 4.8 | 0.00 | 0.00 | 0.00 | 64 | 1007.0 |
| 20260505062241 | 18 | 100 | 8.0 | 9.7 | 0.00 | 0.00 | 0.00 | 63 | 1006.7 |
| 20260505061737 | 18 | 122 | 0.0 | 4.8 | 0.00 | 0.00 | 0.00 | 63 | 1007.0 |
| 20260505061235 | 18 | 128 | 3.2 | 4.8 | 0.00 | 0.00 | 0.00 | 63 | 1006.9 |
| 20260505060732 | 19 | 147 | 1.6 | 4.8 | 0.00 | 0.00 | 0.00 | 63 | 1006.9 |
| 20260505060229 | 19 | 138 | 3.2 | 3.2 | 0.00 | 0.00 | 0.00 | 62 | 1007.0 |
| 20260505055724 | 19 | 106 | 6.4 | 9.7 | 0.00 | 0.00 | 0.00 | 61 | 1006.9 |
| 20260505055221 | 19 | 88 | 6.4 | 12.9 | 0.00 | 0.00 | 0.00 | 61 | 1007.1 |
| 20260505054718 | 19 | 86 | 4.8 | 8.0 | 0.00 | 0.00 | 0.00 | 61 | 1007.0 |
| 20260505054216 | 19 | 72 | 8.0 | 9.7 | 0.00 | 0.00 | 0.00 | 61 | 1007.1 |
| 20260505053714 | 19 | 149 | 4.8 | 14.5 | 0.00 | 0.00 | 0.00 | 61 | 1007.1 |
| 20260505053210 | 19 | 135 | 1.6 | 8.0 | 0.00 | 0.00 | 0.00 | 61 | 1007.3 |
| 20260505052708 | 20 | 59 | 4.8 | 8.0 | 0.00 | 0.00 | 0.00 | 61 | 1007.2 |
| 20260505052204 | 20 | 122 | 1.6 | 8.0 | 0.00 | 0.00 | 0.00 | 61 | 1007.5 |
| 20260505051701 | 20 | 170 | 1.6 | 3.2 | 0.00 | 0.00 | 0.00 | 61 | 1007.6 |
| 20260505051200 | 20 | 97 | 3.2 | 11.3 | 0.00 | 0.00 | 0.00 | 60 | 1007.5 |
| 20260505050657 | 20 | 104 | 3.2 | 8.0 | 0.00 | 0.00 | 0.00 | 60 | 1007.3 |
| 20260505050155 | 20 | 153 | 1.6 | 4.8 | 0.00 | 0.00 | 0.00 | 59 | 1007.4 |
| 20260505041625 | 20 | 108 | 4.8 | 8.0 | 0.00 | 0.00 | 0.00 | 57 | 1007.7 |
| 20260505041122 | 20 | 119 | 8.0 | 9.7 | 0.00 | 0.00 | 0.00 | 57 | 1007.5 |
| 20260505040619 | 21 | 141 | 4.8 | 9.7 | 0.00 | 0.00 | 0.00 | 56 | 1007.9 |
| 20260505040116 | 21 | 143 | 4.8 | 11.3 | 0.00 | 0.00 | 0.00 | 56 | 1007.9 |
| 20260505035612 | 21 | 118 | 4.8 | 8.0 | 0.00 | 0.00 | 0.00 | 56 | 1007.6 |
| 20260505035109 | 21 | 133 | 4.8 | 11.3 | 0.00 | 0.00 | 0.00 | 55 | 1007.6 |
| 20260505034606 | 21 | 137 | 4.8 | 8.0 | 0.00 | 0.00 | 0.00 | 55 | 1007.9 |
| 20260505034102 | 21 | 130 | 4.8 | 11.3 | 0.00 | 0.00 | 0.00 | 55 | 1007.8 |
| 20260505033559 | 21 | 166 | 1.6 | 12.9 | 0.00 | 0.00 | 0.00 | 55 | 1007.8 |
| 20260505033058 | 21 | 75 | 4.8 | 12.9 | 0.00 | 0.00 | 0.00 | 55 | 1007.7 |
| 20260505032555 | 21 | 135 | 4.8 | 4.8 | 0.00 | 0.00 | 0.00 | 55 | 1007.7 |
| 20260505032051 | 21 | 217 | 1.6 | 11.3 | 0.00 | 0.00 | 0.00 | 54 | 1007.6 |
| 20260505031549 | 21 | 83 | 8.0 | 12.9 | 0.00 | 0.00 | 0.00 | 54 | 1007.6 |
| 20260505031045 | 21 | 126 | 4.8 | 9.7 | 0.00 | 0.00 | 0.00 | 54 | 1007.3 |
| 20260505030542 | 21 | 146 | 4.8 | 11.3 | 0.00 | 0.00 | 0.00 | 54 | 1007.1 |
| 20260505030038 | 21 | 113 | 8.0 | 14.5 | 0.00 | 0.00 | 0.00 | 54 | 1007.2 |
| 20260505025534 | 21 | 142 | 1.6 | 4.8 | 0.00 | 0.00 | 0.00 | 54 | 1007.4 |
| 20260505025033 | 21 | 149 | 6.4 | 9.7 | 0.00 | 0.00 | 0.00 | 54 | 1007.4 |
| 20260505024529 | 21 | 104 | 3.2 | 9.7 | 0.00 | 0.00 | 0.00 | 54 | 1007.4 |
| 20260505024027 | 21 | 64 | 4.8 | 4.8 | 0.00 | 0.00 | 0.00 | 54 | 1007.3 |
| 20260505023523 | 22 | 149 | 3.2 | 4.8 | 0.00 | 0.00 | 0.00 | 53 | 1007.3 |
| 20260505023021 | 22 | 99 | 6.4 | 12.9 | 0.00 | 0.00 | 0.00 | 52 | 1007.3 |
| 20260505022519 | 22 | 86 | 4.8 | 8.0 | 0.00 | 0.00 | 0.00 | 52 | 1007.2 |
| 20260505022016 | 22 | 138 | 4.8 | 9.7 | 0.00 | 0.00 | 0.00 | 52 | 1007.0 |
| 20260505021512 | 22 | 126 | 1.6 | 9.7 | 0.00 | 0.00 | 0.00 | 52 | 1006.9 |
| 20260505021009 | 22 | 91 | 6.4 | 11.3 | 0.00 | 0.00 | 0.00 | 52 | 1006.9 |
| 20260505020503 | 22 | 132 | 0.0 | 8.0 | 0.00 | 0.00 | 0.00 | 51 | 1006.8 |
| 20260505020000 | 22 | 103 | 6.4 | 9.7 | 0.00 | 0.00 | 0.00 | 50 | 1006.7 |
| 20260505015458 | 22 | 110 | 4.8 | 11.3 | 0.00 | 0.00 | 0.00 | 50 | 1006.6 |
| 20260505014954 | 22 | 65 | 4.8 | 12.9 | 0.00 | 0.00 | 0.00 | 49 | 1006.6 |
| 20260505014451 | 22 | 79 | 4.8 | 11.3 | 0.00 | 0.00 | 0.00 | 48 | 1006.8 |
| 20260505013949 | 22 | 120 | 3.2 | 9.7 | 0.00 | 0.00 | 0.00 | 48 | 1006.6 |
| 20260505013445 | 23 | 120 | 4.8 | 4.8 | 0.00 | 0.00 | 0.00 | 49 | 1006.6 |
| 20260505012943 | 23 | 154 | 4.8 | 8.0 | 0.00 | 0.00 | 0.00 | 48 | 1006.6 |
| 20260505012441 | 23 | 145 | 3.2 | 8.0 | 0.00 | 0.00 | 0.00 | 48 | 1006.5 |
| 20260505011937 | 23 | 174 | 4.8 | 8.0 | 0.00 | 0.00 | 0.00 | 48 | 1006.5 |
| 20260505011433 | 23 | 74 | 4.8 | 8.0 | 0.00 | 0.00 | 0.00 | 48 | 1006.6 |
| 20260505010930 | 23 | 120 | 1.6 | 8.0 | 0.00 | 0.00 | 0.00 | 47 | 1006.5 |
| 20260505010426 | 23 | 122 | 1.6 | 3.2 | 0.00 | 0.00 | 0.00 | 47 | 1006.6 |
| 20260505005922 | 23 | 141 | 1.6 | 3.2 | 0.00 | 0.00 | 0.00 | 46 | 1006.3 |
| 20260505005419 | 23 | 138 | 4.8 | 8.0 | 0.00 | 0.00 | 0.00 | 45 | 1006.6 |
| 20260505004917 | 24 | 104 | 4.8 | 4.8 | 0.00 | 0.00 | 0.00 | 46 | 1006.5 |
| 20260505004413 | 24 | 128 | 3.2 | 11.3 | 0.00 | 0.00 | 0.00 | 45 | 1006.4 |
| 20260505003910 | 24 | 151 | 6.4 | 8.0 | 0.00 | 0.00 | 0.00 | 45 | 1006.2 |
| 20260505003407 | 25 | 145 | 4.8 | 11.3 | 0.00 | 0.00 | 0.00 | 45 | 1006.4 |
| 20260505002904 | 25 | 155 | 8.0 | 11.3 | 0.00 | 0.00 | 0.00 | 44 | 1006.2 |
| 20260505002400 | 25 | 138 | 3.2 | 16.1 | 0.00 | 0.00 | 0.00 | 43 | 1006.4 |
| 20260505001859 | 25 | 147 | 1.6 | 4.8 | 0.00 | 0.00 | 0.00 | 44 | 1006.3 |
| 20260505001355 | 25 | 158 | 6.4 | 14.5 | 0.00 | 0.00 | 0.00 | 44 | 1006.1 |
| 20260505000853 | 25 | 133 | 9.7 | 16.1 | 0.00 | 0.00 | 0.00 | 43 | 1006.1 |
| 20260505000351 | 26 | 151 | 6.4 | 12.9 | 0.00 | 0.00 | 0.00 | 42 | 1006.2 |
| 20260504235847 | 26 | 158 | 4.8 | 12.9 | 0.00 | 0.00 | 0.00 | 42 | 1006.4 |
| 20260504235344 | 26 | 246 | 12.9 | 16.1 | 0.00 | 0.00 | 0.00 | 41 | 1006.4 |
| 20260504234840 | 26 | 172 | 11.3 | 20.9 | 0.00 | 0.00 | 0.00 | 42 | 1006.3 |
| 20260504234338 | 26 | 217 | 9.7 | 20.9 | 0.00 | 0.00 | 0.00 | 40 | 1006.2 |
| 20260504233835 | 26 | 177 | 3.2 | 8.0 | 0.00 | 0.00 | 0.00 | 41 | 1006.4 |
| 20260504233330 | 26 | 154 | 4.8 | 20.9 | 0.00 | 0.00 | 0.00 | 41 | 1006.3 |
| 20260504232827 | 26 | 178 | 12.9 | 16.1 | 0.00 | 0.00 | 0.00 | 39 | 1006.1 |
| 20260504232324 | 26 | 242 | 8.0 | 12.9 | 0.00 | 0.00 | 0.00 | 39 | 1006.2 |
| 20260504231821 | 26 | 180 | 11.3 | 11.3 | 0.00 | 0.00 | 0.00 | 39 | 1006.2 |
| 20260504231318 | 26 | 161 | 11.3 | 22.5 | 0.00 | 0.00 | 0.00 | 38 | 1006.6 |
| 20260504230814 | 26 | 262 | 9.7 | 17.7 | 0.00 | 0.00 | 0.00 | 39 | 1006.3 |
| 20260504230312 | 26 | 177 | 14.5 | 25.7 | 0.00 | 0.00 | 0.00 | 39 | 1006.1 |
| 20260504225810 | 26 | 249 | 11.3 | 16.1 | 0.00 | 0.00 | 0.00 | 40 | 1006.1 |
| 20260504225306 | 26 | 180 | 4.8 | 17.7 | 0.00 | 0.00 | 0.00 | 40 | 1006.3 |
| 20260504224803 | 26 | 184 | 4.8 | 11.3 | 0.00 | 0.00 | 0.00 | 39 | 1006.2 |
| 20260504224301 | 27 | 207 | 14.5 | 27.4 | 0.00 | 0.00 | 0.00 | 38 | 1006.3 |
| 20260504223757 | 26 | 111 | 6.4 | 12.9 | 0.00 | 0.00 | 0.00 | 39 | 1006.1 |
| 20260504223253 | 27 | 218 | 6.4 | 16.1 | 0.00 | 0.00 | 0.00 | 38 | 1006.3 |
| 20260504222750 | 26 | 250 | 14.5 | 24.1 | 0.00 | 0.00 | 0.00 | 38 | 1006.3 |
| 20260504222246 | 26 | 216 | 9.7 | 12.9 | 0.00 | 0.00 | 0.00 | 39 | 1006.5 |
| 20260504221744 | 27 | 152 | 8.0 | 22.5 | 0.00 | 0.00 | 0.00 | 39 | 1006.5 |
| 20260504221241 | 27 | 189 | 12.9 | 35.4 | 0.00 | 0.00 | 0.00 | 38 | 1006.2 |
| 20260504220738 | 27 | 69 | 9.7 | 22.5 | 0.00 | 0.00 | 0.00 | 37 | 1006.4 |
| 20260504220235 | 27 | 151 | 12.9 | 22.5 | 0.00 | 0.00 | 0.00 | 39 | 1006.3 |
| 20260504215732 | 27 | 193 | 8.0 | 33.8 | 0.00 | 0.00 | 0.00 | 37 | 1006.6 |
| 20260504215229 | 27 | 179 | 6.4 | 9.7 | 0.00 | 0.00 | 0.00 | 38 | 1006.5 |
| 20260504214725 | 27 | 213 | 6.4 | 16.1 | 0.00 | 0.00 | 0.00 | 38 | 1006.5 |
| 20260504214221 | 27 | 242 | 11.3 | 25.7 | 0.00 | 0.00 | 0.00 | 37 | 1006.7 |
| 20260504213718 | 27 | 266 | 8.0 | 16.1 | 0.00 | 0.00 | 0.00 | 37 | 1006.7 |
| 20260504213209 | 27 | 187 | 11.3 | 20.9 | 0.00 | 0.00 | 0.00 | 37 | 1006.6 |
| 20260504212706 | 27 | 138 | 16.1 | 24.1 | 0.00 | 0.00 | 0.00 | 36 | 1006.6 |
| 20260504212203 | 27 | 169 | 4.8 | 17.7 | 0.00 | 0.00 | 0.00 | 38 | 1006.4 |
| 20260504211700 | 27 | 139 | 20.9 | 24.1 | 0.00 | 0.00 | 0.00 | 36 | 1006.6 |
| 20260504211155 | 27 | 240 | 8.0 | 20.9 | 0.00 | 0.00 | 0.00 | 37 | 1006.9 |
| 20260504210653 | 27 | 186 | 9.7 | 22.5 | 0.00 | 0.00 | 0.00 | 36 | 1006.8 |
| 20260504210150 | 27 | 150 | 3.2 | 24.1 | 0.00 | 0.00 | 0.00 | 35 | 1007.0 |
| 20260504205647 | 27 | 161 | 14.5 | 29.0 | 0.00 | 0.00 | 0.00 | 34 | 1006.9 |
| 20260504205144 | 27 | 213 | 4.8 | 24.1 | 0.00 | 0.00 | 0.00 | 35 | 1006.9 |
| 20260504204643 | 27 | 219 | 16.1 | 27.4 | 0.00 | 0.00 | 0.00 | 35 | 1007.1 |
| 20260504204141 | 27 | 261 | 14.5 | 17.7 | 0.00 | 0.00 | 0.00 | 35 | 1007.2 |
| 20260504203640 | 27 | 270 | 3.2 | 11.3 | 0.00 | 0.00 | 0.00 | 34 | 1007.0 |
| 20260504203137 | 27 | 227 | 6.4 | 20.9 | 0.00 | 0.00 | 0.00 | 35 | 1007.2 |
| 20260504202637 | 27 | 137 | 9.7 | 12.9 | 0.00 | 0.00 | 0.00 | 34 | 1007.0 |
| 20260504202135 | 27 | 117 | 8.0 | 16.1 | 0.00 | 0.00 | 0.00 | 35 | 1007.2 |
| 20260504201631 | 27 | 254 | 12.9 | 24.1 | 0.00 | 0.00 | 0.00 | 35 | 1007.4 |
| 20260504201129 | 27 | 134 | 11.3 | 14.5 | 0.00 | 0.00 | 0.00 | 34 | 1007.4 |
| 20260504200626 | 27 | 239 | 12.9 | 24.1 | 0.00 | 0.00 | 0.00 | 34 | 1007.4 |
| 20260504200123 | 27 | 89 | 9.7 | 25.7 | 0.00 | 0.00 | 0.00 | 34 | 1007.4 |
| 20260504195618 | 27 | 175 | 6.4 | 37.0 | 0.00 | 0.00 | 0.00 | 35 | 1007.4 |
| 20260504195115 | 27 | 244 | 4.8 | 25.7 | 0.00 | 0.00 | 0.00 | 35 | 1007.4 |
| 20260504194612 | 27 | 209 | 8.0 | 20.9 | 0.00 | 0.00 | 0.00 | 34 | 1007.5 |
| 20260504194107 | 27 | 158 | 17.7 | 22.5 | 0.00 | 0.00 | 0.00 | 35 | 1007.4 |
| 20260504193604 | 27 | 168 | 16.1 | 27.4 | 0.00 | 0.00 | 0.00 | 34 | 1007.3 |
| 20260504193103 | 27 | 262 | 11.3 | 27.4 | 0.00 | 0.00 | 0.00 | 34 | 1007.5 |
| 20260504192600 | 27 | 179 | 17.7 | 35.4 | 0.00 | 0.00 | 0.00 | 33 | 1007.5 |
| 20260504192058 | 27 | 140 | 6.4 | 16.1 | 0.00 | 0.00 | 0.00 | 34 | 1007.4 |
| 20260504191555 | 27 | 235 | 8.0 | 17.7 | 0.00 | 0.00 | 0.00 | 35 | 1007.6 |
| 20260504191046 | 27 | 208 | 14.5 | 25.7 | 0.00 | 0.00 | 0.00 | 34 | 1007.6 |
| 20260504190543 | 27 | 89 | 9.7 | 22.5 | 0.00 | 0.00 | 0.00 | 34 | 1007.5 |
| 20260504190039 | 27 | 294 | 9.7 | 24.1 | 0.00 | 0.00 | 0.00 | 32 | 1007.4 |
| 20260504185536 | 27 | 188 | 8.0 | 22.5 | 0.00 | 0.00 | 0.00 | 34 | 1007.7 |
| 20260504185032 | 27 | 194 | 8.0 | 24.1 | 0.00 | 0.00 | 0.00 | 33 | 1007.6 |
| 20260504184528 | 27 | 153 | 14.5 | 24.1 | 0.00 | 0.00 | 0.00 | 31 | 1007.6 |
| 20260504184023 | 27 | 228 | 8.0 | 14.5 | 0.00 | 0.00 | 0.00 | 36 | 1007.9 |
| 20260504183521 | 27 | 192 | 14.5 | 22.5 | 0.00 | 0.00 | 0.00 | 35 | 1007.9 |
| 20260504183019 | 27 | 166 | 4.8 | 24.1 | 0.00 | 0.00 | 0.00 | 32 | 1008.0 |
| 20260504182515 | 27 | 235 | 12.9 | 22.5 | 0.00 | 0.00 | 0.00 | 31 | 1008.3 |
| 20260504182013 | 26 | 145 | 9.7 | 22.5 | 0.00 | 0.00 | 0.00 | 34 | 1007.9 |
| 20260504181510 | 26 | 154 | 4.8 | 27.4 | 0.00 | 0.00 | 0.00 | 36 | 1008.2 |
| 20260504181009 | 26 | 131 | 6.4 | 33.8 | 0.00 | 0.00 | 0.00 | 35 | 1008.7 |
| 20260504180507 | 26 | 162 | 16.1 | 17.7 | 0.00 | 0.00 | 0.00 | 33 | 1008.8 |
| 20260504180005 | 26 | 239 | 19.3 | 29.0 | 0.00 | 0.00 | 0.00 | 34 | 1008.4 |
| 20260504175502 | 26 | 152 | 16.1 | 22.5 | 0.00 | 0.00 | 0.00 | 35 | 1008.4 |
| 20260504174959 | 26 | 192 | 19.3 | 27.4 | 0.00 | 0.00 | 0.00 | 34 | 1008.4 |
| 20260504174456 | 26 | 263 | 9.7 | 16.1 | 0.00 | 0.00 | 0.00 | 37 | 1008.4 |
| 20260504173953 | 26 | 235 | 9.7 | 16.1 | 0.00 | 0.00 | 0.00 | 36 | 1008.4 |
| 20260504173450 | 26 | 235 | 16.1 | 40.2 | 0.00 | 0.00 | 0.00 | 35 | 1008.9 |
| 20260504172948 | 26 | 209 | 11.3 | 22.5 | 0.00 | 0.00 | 0.00 | 38 | 1008.7 |
| 20260504172443 | 25 | 208 | 12.9 | 22.5 | 0.00 | 0.00 | 0.00 | 38 | 1008.6 |
| 20260504171940 | 25 | 184 | 14.5 | 20.9 | 0.00 | 0.00 | 0.00 | 38 | 1008.7 |
| 20260504171437 | 25 | 259 | 9.7 | 17.7 | 0.00 | 0.00 | 0.00 | 38 | 1008.8 |
| 20260504170934 | 25 | 237 | 8.0 | 16.1 | 0.00 | 0.00 | 0.00 | 40 | 1008.9 |
| 20260504170430 | 25 | 256 | 14.5 | 22.5 | 0.00 | 0.00 | 0.00 | 39 | 1009.1 |
| 20260504160349 | 24 | 179 | 6.4 | 29.0 | 0.00 | 0.00 | 0.00 | 41 | 1009.4 |
| 20260504150814 | 23 | 216 | 8.0 | 14.5 | 0.00 | 0.00 | 0.00 | 44 | 1009.8 |
| 20260504150311 | 23 | 265 | 3.2 | 9.7 | 0.00 | 0.00 | 0.00 | 44 | 1009.8 |
| 20260504141241 | 21 | 160 | 1.6 | 9.7 | 0.00 | 0.00 | 0.00 | 53 | 1010.1 |
| 20260504140737 | 21 | 213 | 3.2 | 8.0 | 0.00 | 0.00 | 0.00 | 54 | 1010.2 |
| 20260504140233 | 20 | 144 | 6.4 | 11.3 | 0.00 | 0.00 | 0.00 | 54 | 1010.3 |
| 20260504130702 | 17 | 133 | 0.0 | 0.0 | 0.00 | 0.00 | 0.00 | 74 | 1010.5 |
| 20260504130158 | 16 | 173 | 0.0 | 0.0 | 0.00 | 0.00 | 0.00 | 76 | 1010.7 |
| 20260504120122 | 13 | 138 | 0.0 | 0.0 | 0.00 | 0.00 | 0.00 | 90 | 1010.4 |
| 20260504110549 | 13 | 148 | 0.0 | 3.2 | 0.00 | 0.00 | 0.00 | 89 | 1010.0 |